Time;durP1;ratioP1;P1;durP2;ratioP2;P2;SDS_P1;SDS_P2;PMS_P1;PMS_P2;Temp;Humidity;BMP_temperature;BMP_pressure;BME280_temperature;BME280_humidity;BME280_pressure;Samples;Min_cycle;Max_cycle;Signal;HPM_P1;HPM_P2
2021/12/28 00:00:19;;;;;;;18.65;10.85;;;;;;;;;;5013253;28;20045;-67
2021/12/28 00:02:46;;;;;;;16.75;10.00;;;;;;;;;;5017948;28;20282;-67
2021/12/28 00:05:13;;;;;;;12.98;8.60;;;;;;;;;;5014848;28;20419;-67
2021/12/28 00:07:40;;;;;;;16.10;10.18;;;;;;;;;;5022914;28;20076;-67
2021/12/28 00:10:07;;;;;;;16.48;9.35;;;;;;;;;;5014691;28;20076;-68
2021/12/28 00:12:36;;;;;;;13.07;8.90;;;;;;;;;;5018789;28;20422;-68
2021/12/28 00:15:19;;;;;;;17.27;9.05;;;;;;;;;;5018534;28;20431;-67
2021/12/28 00:18:04;;;;;;;17.58;8.35;;;;;;;;;;5021599;28;20065;-67
2021/12/28 00:20:33;;;;;;;15.30;8.98;;;;;;;;;;5023431;28;20392;-68
2021/12/28 00:23:00;;;;;;;18.38;9.13;;;;;;;;;;5004486;28;20155;-68
2021/12/28 00:25:26;;;;;;;14.75;8.13;;;;;;;;;;5021429;28;20270;-67
2021/12/28 00:27:53;;;;;;;15.95;7.95;;;;;;;;;;5006842;28;20466;-67
2021/12/28 00:30:19;;;;;;;15.10;8.27;;;;;;;;;;5013979;28;20049;-68
2021/12/28 00:32:52;;;;;;;17.90;7.97;;;;;;;;;;5013990;28;20148;-67
2021/12/28 00:35:26;;;;;;;24.38;8.40;;;;;;;;;;5022102;28;20442;-68
2021/12/28 00:37:53;;;;;;;15.45;7.75;;;;;;;;;;5004422;28;20045;-67
2021/12/28 00:40:19;;;;;;;17.40;8.48;;;;;;;;;;5007588;28;20139;-67
2021/12/28 00:42:45;;;;;;;15.48;7.82;;;;;;;;;;5017744;28;20064;-67
2021/12/28 00:45:12;;;;;;;15.35;8.15;;;;;;;;;;5007432;28;20050;-67
2021/12/28 00:47:39;;;;;;;16.95;7.65;;;;;;;;;;5021989;28;20077;-67
2021/12/28 00:50:06;;;;;;;19.10;8.00;;;;;;;;;;4995958;28;20059;-67
2021/12/28 00:52:33;;;;;;;17.92;7.93;;;;;;;;;;5022366;28;20596;-67
2021/12/28 00:55:00;;;;;;;20.73;8.48;;;;;;;;;;5010112;28;20064;-67
2021/12/28 00:57:26;;;;;;;16.90;7.75;;;;;;;;;;4996679;28;20068;-67
2021/12/28 00:59:52;;;;;;;22.52;8.35;;;;;;;;;;5003323;28;20398;-67
2021/12/28 01:02:18;;;;;;;16.48;6.68;;;;;;;;;;5013643;28;20053;-67
2021/12/28 01:04:45;;;;;;;15.00;7.75;;;;;;;;;;5021523;28;20395;-67
2021/12/28 01:07:11;;;;;;;17.77;8.13;;;;;;;;;;5009049;28;20278;-67
2021/12/28 01:09:40;;;;;;;17.02;8.00;;;;;;;;;;5016653;28;20466;-68
2021/12/28 01:12:06;;;;;;;14.27;6.70;;;;;;;;;;5021894;28;20510;-68
2021/12/28 01:14:32;;;;;;;13.38;7.50;;;;;;;;;;5013723;28;20057;-68
2021/12/28 01:16:59;;;;;;;19.75;7.90;;;;;;;;;;5021109;28;20536;-68
2021/12/28 01:19:28;;;;;;;16.42;7.10;;;;;;;;;;5013059;28;20484;-68
2021/12/28 01:21:54;;;;;;;;;;;;;;;;;;5013621;28;20049;-68
2021/12/28 01:24:21;;;;;;;15.93;6.55;;;;;;;;;;5000151;28;19925;-67
2021/12/28 01:26:47;;;;;;;15.38;6.57;;;;;;;;;;5020595;28;20057;-67
2021/12/28 01:29:13;;;;;;;18.98;6.97;;;;;;;;;;5020308;28;20069;-68
2021/12/28 01:31:41;;;;;;;15.55;6.60;;;;;;;;;;4999431;28;20419;-67
2021/12/28 01:34:08;;;;;;;12.23;6.25;;;;;;;;;;5008757;28;20160;-67
2021/12/28 01:36:35;;;;;;;12.02;5.57;;;;;;;;;;5002188;28;20045;-68
2021/12/28 01:39:03;;;;;;;20.25;7.10;;;;;;;;;;5019322;28;20125;-68
2021/12/28 01:41:30;;;;;;;14.15;5.47;;;;;;;;;;5015508;28;20054;-67
2021/12/28 01:43:59;;;;;;;25.60;6.68;;;;;;;;;;5020707;28;20053;-67
2021/12/28 01:46:25;;;;;;;17.20;5.65;;;;;;;;;;5011577;28;20410;-67
2021/12/28 01:48:52;;;;;;;13.40;5.28;;;;;;;;;;5008146;28;20326;-68
2021/12/28 01:51:19;;;;;;;15.55;5.88;;;;;;;;;;5016947;28;20057;-68
2021/12/28 01:53:47;;;;;;;14.18;5.43;;;;;;;;;;5011632;28;20045;-69
2021/12/28 01:56:15;;;;;;;15.50;4.75;;;;;;;;;;5011168;28;20075;-68
2021/12/28 01:58:41;;;;;;;11.98;4.70;;;;;;;;;;5020960;28;20072;-67
2021/12/28 02:01:08;;;;;;;12.02;5.32;;;;;;;;;;5015244;28;20049;-68
2021/12/28 02:03:36;;;;;;;17.55;5.40;;;;;;;;;;5016832;28;20163;-67
2021/12/28 02:06:03;;;;;;;15.43;5.13;;;;;;;;;;5008195;28;20542;-67
2021/12/28 02:08:29;;;;;;;16.30;6.13;;;;;;;;;;5020625;28;20053;-67
2021/12/28 02:10:56;;;;;;;13.35;5.20;;;;;;;;;;5005592;28;20555;-67
2021/12/28 02:13:23;;;;;;;18.52;5.40;;;;;;;;;;5008418;28;20487;-67
2021/12/28 02:15:50;;;;;;;13.35;5.13;;;;;;;;;;5009790;28;20058;-67
2021/12/28 02:18:18;;;;;;;11.02;4.40;;;;;;;;;;5012962;28;20561;-67
2021/12/28 02:20:44;;;;;;;10.60;4.65;;;;;;;;;;5013912;28;20049;-67
2021/12/28 02:23:11;;;;;;;19.42;5.00;;;;;;;;;;5011870;28;20053;-66
2021/12/28 02:25:38;;;;;;;18.20;5.68;;;;;;;;;;5020645;28;20053;-67
2021/12/28 02:28:05;;;;;;;15.98;5.20;;;;;;;;;;5004093;28;20475;-66
2021/12/28 02:30:32;;;;;;;15.07;5.90;;;;;;;;;;5016130;28;20057;-67
2021/12/28 02:32:59;;;;;;;19.90;5.18;;;;;;;;;;5020436;28;20659;-66
2021/12/28 02:35:26;;;;;;;14.57;5.45;;;;;;;;;;5012086;28;20055;-66
2021/12/28 02:37:53;;;;;;;15.68;5.78;;;;;;;;;;5019048;28;20045;-66
2021/12/28 02:40:22;;;;;;;13.40;5.63;;;;;;;;;;5008005;28;20049;-66
2021/12/28 02:42:53;;;;;;;17.10;6.38;;;;;;;;;;5013194;28;20053;-67
2021/12/28 02:45:21;;;;;;;11.40;5.35;;;;;;;;;;5003410;28;20486;-66
2021/12/28 02:47:48;;;;;;;15.02;5.47;;;;;;;;;;5015737;28;20064;-66
2021/12/28 02:50:17;;;;;;;15.10;5.57;;;;;;;;;;5020515;28;20469;-66
2021/12/28 02:52:43;;;;;;;15.23;6.07;;;;;;;;;;5011311;28;20407;-66
2021/12/28 02:55:11;;;;;;;12.65;5.68;;;;;;;;;;5008251;28;20053;-67
2021/12/28 02:57:44;;;;;;;14.68;5.75;;;;;;;;;;5003058;28;20045;-66
2021/12/28 03:00:10;;;;;;;13.68;6.30;;;;;;;;;;5019392;28;20049;-67
2021/12/28 03:02:37;;;;;;;16.40;5.18;;;;;;;;;;5013010;28;20045;-67
2021/12/28 03:05:05;;;;;;;15.97;5.53;;;;;;;;;;5020775;28;20064;-67
2021/12/28 03:07:31;;;;;;;13.52;5.63;;;;;;;;;;5008595;28;20294;-67
2021/12/28 03:09:57;;;;;;;12.05;5.18;;;;;;;;;;5000256;28;20057;-67
2021/12/28 03:12:24;;;;;;;13.88;5.95;;;;;;;;;;5015461;28;20053;-67
2021/12/28 03:14:50;;;;;;;15.20;5.85;;;;;;;;;;5010305;28;20399;-67
2021/12/28 03:17:16;;;;;;;10.65;5.47;;;;;;;;;;5019031;28;20686;-67
2021/12/28 03:19:42;;;;;;;14.52;6.05;;;;;;;;;;5000723;28;20062;-66
2021/12/28 03:22:09;;;;;;;12.52;5.45;;;;;;;;;;5003507;28;20261;-67
2021/12/28 03:24:35;;;;;;;17.30;5.38;;;;;;;;;;5004354;28;20045;-67
2021/12/28 03:27:01;;;;;;;15.70;5.88;;;;;;;;;;5001660;28;20054;-66
2021/12/28 03:29:28;;;;;;;10.25;5.45;;;;;;;;;;5019314;28;20057;-66
2021/12/28 03:31:54;;;;;;;9.70;5.22;;;;;;;;;;5013363;28;20064;-68
2021/12/28 03:34:20;;;;;;;13.85;5.70;;;;;;;;;;5020014;28;20061;-67
2021/12/28 03:36:47;;;;;;;14.85;5.30;;;;;;;;;;5014296;28;20064;-68
2021/12/28 03:39:13;;;;;;;12.95;5.10;;;;;;;;;;5005061;28;20049;-66
2021/12/28 03:41:40;;;;;;;12.63;5.85;;;;;;;;;;5019952;28;20056;-68
2021/12/28 03:44:07;;;;;;;12.13;5.63;;;;;;;;;;5011378;28;20057;-66
2021/12/28 03:46:34;;;;;;;11.30;5.95;;;;;;;;;;4996474;28;20053;-68
2021/12/28 03:49:00;;;;;;;12.57;6.07;;;;;;;;;;4993768;28;20103;-68
2021/12/28 03:51:27;;;;;;;12.02;5.72;;;;;;;;;;5009648;28;20057;-68
2021/12/28 03:53:53;;;;;;;11.98;5.60;;;;;;;;;;5005334;28;20522;-68
2021/12/28 03:56:20;;;;;;;17.65;5.85;;;;;;;;;;4986109;28;20053;-68
2021/12/28 03:58:46;;;;;;;13.32;5.93;;;;;;;;;;5010244;28;20053;-68
2021/12/28 04:01:15;;;;;;;13.55;5.82;;;;;;;;;;5010108;28;20042;-68
2021/12/28 04:03:41;;;;;;;15.05;5.57;;;;;;;;;;5014881;28;21217;-68
2021/12/28 04:06:09;;;;;;;14.82;5.82;;;;;;;;;;4999511;28;20046;-68
2021/12/28 04:08:38;;;;;;;11.03;5.10;;;;;;;;;;5015530;28;20053;-68
2021/12/28 04:13:50;;;;;;;12.70;5.63;;;;;;;;;;5009932;28;20053;-68
2021/12/28 04:16:17;;;;;;;13.98;6.22;;;;;;;;;;5018493;28;20061;-68
2021/12/28 04:18:44;;;;;;;10.20;5.30;;;;;;;;;;5002799;28;20056;-68
2021/12/28 04:21:10;;;;;;;15.40;5.88;;;;;;;;;;5013629;28;20590;-68
2021/12/28 04:23:37;;;;;;;12.57;6.10;;;;;;;;;;5007602;28;20442;-68
2021/12/28 04:26:04;;;;;;;13.00;5.95;;;;;;;;;;5010096;28;20046;-68
2021/12/28 04:28:30;;;;;;;12.77;5.30;;;;;;;;;;5016869;28;20072;-68
2021/12/28 04:30:56;;;;;;;12.50;6.43;;;;;;;;;;5002128;28;20049;-68
2021/12/28 04:33:23;;;;;;;16.88;5.93;;;;;;;;;;5004902;28;20152;-68
2021/12/28 04:35:49;;;;;;;12.23;5.40;;;;;;;;;;5007409;28;20053;-68
2021/12/28 04:38:16;;;;;;;11.75;5.20;;;;;;;;;;5015575;28;20244;-68
2021/12/28 04:40:42;;;;;;;11.82;5.30;;;;;;;;;;5007886;28;20057;-68
2021/12/28 04:43:10;;;;;;;17.13;6.00;;;;;;;;;;5015370;28;20045;-68
2021/12/28 04:45:37;;;;;;;13.95;5.38;;;;;;;;;;5011445;28;20050;-68
2021/12/28 04:48:05;;;;;;;12.43;5.07;;;;;;;;;;5002536;28;20049;-68
2021/12/28 04:50:38;;;;;;;14.73;5.40;;;;;;;;;;5016099;28;20427;-68
2021/12/28 04:53:08;;;;;;;17.75;5.45;;;;;;;;;;5014729;28;20056;-68
2021/12/28 04:55:36;;;;;;;14.75;5.50;;;;;;;;;;5012425;28;20069;-68
2021/12/28 04:58:02;;;;;;;10.77;4.72;;;;;;;;;;5012216;28;20209;-68
2021/12/28 05:00:29;;;;;;;14.98;5.15;;;;;;;;;;5017005;28;20400;-68
2021/12/28 05:02:56;;;;;;;10.18;4.72;;;;;;;;;;5016575;28;20399;-68
2021/12/28 05:05:22;;;;;;;12.98;5.07;;;;;;;;;;5010154;28;20053;-68
2021/12/28 05:07:49;;;;;;;19.83;5.78;;;;;;;;;;5017323;28;20053;-68
2021/12/28 05:10:15;;;;;;;13.30;4.70;;;;;;;;;;5012385;28;20041;-68
2021/12/28 05:12:43;;;;;;;15.43;4.75;;;;;;;;;;5020401;28;20348;-68
2021/12/28 05:15:10;;;;;;;16.02;4.53;;;;;;;;;;5004220;28;20445;-68
2021/12/28 05:17:36;;;;;;;9.38;4.65;;;;;;;;;;5015825;28;20486;-68
2021/12/28 05:20:04;;;;;;;16.38;4.78;;;;;;;;;;5018475;28;20045;-68
2021/12/28 05:22:31;;;;;;;19.27;5.60;;;;;;;;;;5011198;28;20103;-68
2021/12/28 05:24:57;;;;;;;16.38;4.63;;;;;;;;;;5018603;28;20045;-68
2021/12/28 05:27:23;;;;;;;12.02;4.13;;;;;;;;;;5001489;28;20423;-68
2021/12/28 05:29:50;;;;;;;17.77;5.50;;;;;;;;;;5015280;28;20056;-68
2021/12/28 05:32:16;;;;;;;12.98;4.65;;;;;;;;;;5007725;28;20569;-68
2021/12/28 05:34:43;;;;;;;15.60;3.95;;;;;;;;;;5012020;28;20045;-68
2021/12/28 05:37:14;;;;;;;12.13;4.18;;;;;;;;;;5016006;28;20092;-68
2021/12/28 05:39:40;;;;;;;11.27;3.95;;;;;;;;;;5005015;28;20053;-68
2021/12/28 05:42:07;;;;;;;13.57;4.07;;;;;;;;;;5005270;28;20694;-68
2021/12/28 05:44:33;;;;;;;13.10;3.75;;;;;;;;;;4997561;28;20073;-68
2021/12/28 05:46:59;;;;;;;10.48;3.70;;;;;;;;;;5015642;28;20540;-68
2021/12/28 05:49:26;;;;;;;24.05;4.70;;;;;;;;;;5012643;28;20064;-68
2021/12/28 05:51:52;;;;;;;18.90;4.05;;;;;;;;;;5019932;28;20063;-68
2021/12/28 05:54:19;;;;;;;12.25;3.63;;;;;;;;;;5011864;28;20077;-68
2021/12/28 05:56:45;;;;;;;14.30;4.20;;;;;;;;;;4998345;28;20060;-68
2021/12/28 05:59:12;;;;;;;14.63;4.03;;;;;;;;;;5017647;28;20290;-68
2021/12/28 06:01:38;;;;;;;14.90;3.58;;;;;;;;;;5008905;28;20474;-68
2021/12/28 06:04:05;;;;;;;18.48;4.80;;;;;;;;;;5016234;28;20645;-68
2021/12/28 06:06:31;;;;;;;14.57;3.95;;;;;;;;;;5012328;28;20060;-68
2021/12/28 06:08:57;;;;;;;15.35;4.00;;;;;;;;;;5014505;28;20560;-68
2021/12/28 06:11:24;;;;;;;13.07;4.00;;;;;;;;;;5013802;28;20054;-68
2021/12/28 06:13:50;;;;;;;17.00;4.10;;;;;;;;;;5012756;28;20192;-67
2021/12/28 06:16:16;;;;;;;11.40;4.00;;;;;;;;;;5021028;28;20537;-67
2021/12/28 06:18:43;;;;;;;21.63;4.22;;;;;;;;;;5011408;28;20419;-67
2021/12/28 06:21:10;;;;;;;19.17;3.88;;;;;;;;;;5013106;28;20053;-67
2021/12/28 06:23:36;;;;;;;17.77;4.45;;;;;;;;;;5001222;28;20053;-67
2021/12/28 06:26:03;;;;;;;21.48;4.63;;;;;;;;;;5011430;28;20050;-66
2021/12/28 06:28:29;;;;;;;15.00;3.67;;;;;;;;;;5001769;28;20185;-67
2021/12/28 06:30:56;;;;;;;19.38;3.65;;;;;;;;;;4994085;28;20041;-67
2021/12/28 06:33:24;;;;;;;19.70;5.20;;;;;;;;;;5003217;28;20462;-66
2021/12/28 06:35:50;;;;;;;13.45;3.67;;;;;;;;;;5004269;28;20286;-67
2021/12/28 06:38:17;;;;;;;15.45;3.67;;;;;;;;;;5014718;28;20059;-66
2021/12/28 06:40:44;;;;;;;12.57;4.28;;;;;;;;;;5018115;28;20466;-66
2021/12/28 06:43:10;;;;;;;15.10;3.78;;;;;;;;;;5011871;28;20065;-67
2021/12/28 06:45:37;;;;;;;13.82;4.22;;;;;;;;;;5009516;28;20046;-67
2021/12/28 06:48:03;;;;;;;15.18;3.10;;;;;;;;;;4993628;28;20041;-67
2021/12/28 06:50:29;;;;;;;15.15;3.30;;;;;;;;;;4999634;28;20076;-67
2021/12/28 06:52:56;;;;;;;15.63;3.95;;;;;;;;;;4987622;28;20529;-67
2021/12/28 06:55:22;;;;;;;13.25;3.33;;;;;;;;;;5004594;28;20053;-67
2021/12/28 06:57:49;;;;;;;16.13;3.80;;;;;;;;;;5020583;28;20065;-67
2021/12/28 07:00:20;;;;;;;14.07;2.90;;;;;;;;;;5012912;28;20059;-67
2021/12/28 07:02:46;;;;;;;8.50;2.72;;;;;;;;;;5020384;28;20084;-66
2021/12/28 07:05:12;;;;;;;11.55;2.90;;;;;;;;;;4997702;28;20066;-66
2021/12/28 07:07:39;;;;;;;13.00;3.10;;;;;;;;;;5002618;28;20393;-66
2021/12/28 07:10:06;;;;;;;10.40;2.70;;;;;;;;;;4996552;28;20069;-66
2021/12/28 07:12:33;;;;;;;13.98;3.22;;;;;;;;;;5003824;28;20061;-67
2021/12/28 07:14:59;;;;;;;9.80;2.85;;;;;;;;;;5012881;28;20076;-67
2021/12/28 07:17:28;;;;;;;15.80;3.42;;;;;;;;;;5009008;28;20053;-67
2021/12/28 07:19:55;;;;;;;14.95;3.10;;;;;;;;;;5006025;28;20064;-67
2021/12/28 07:22:21;;;;;;;13.65;3.17;;;;;;;;;;5011455;28;20132;-67
2021/12/28 07:24:47;;;;;;;16.00;3.15;;;;;;;;;;5019672;28;20053;-67
2021/12/28 07:27:14;;;;;;;12.52;2.63;;;;;;;;;;5011954;28;20049;-68
2021/12/28 07:29:40;;;;;;;16.95;3.28;;;;;;;;;;5019372;28;20047;-67
2021/12/28 07:32:08;;;;;;;11.85;2.83;;;;;;;;;;5015881;28;20041;-67
2021/12/28 07:34:35;;;;;;;17.83;4.05;;;;;;;;;;5008788;28;20156;-67
2021/12/28 07:37:01;;;;;;;12.93;3.38;;;;;;;;;;5020815;28;20057;-67
2021/12/28 07:39:27;;;;;;;11.50;3.40;;;;;;;;;;5012361;28;20053;-67
2021/12/28 07:41:54;;;;;;;10.38;2.85;;;;;;;;;;5020653;28;20045;-67
2021/12/28 07:44:22;;;;;;;16.90;3.63;;;;;;;;;;5014340;28;20045;-67
2021/12/28 07:46:48;;;;;;;14.75;3.08;;;;;;;;;;5014375;28;20447;-67
2021/12/28 07:49:14;;;;;;;15.45;3.15;;;;;;;;;;5015809;28;20403;-67
2021/12/28 07:51:41;;;;;;;13.90;2.70;;;;;;;;;;5011201;28;20053;-67
2021/12/28 07:54:08;;;;;;;14.35;3.08;;;;;;;;;;5018964;28;20048;-67
2021/12/28 07:56:34;;;;;;;13.60;2.92;;;;;;;;;;4998255;28;20675;-67
2021/12/28 07:59:00;;;;;;;14.15;3.60;;;;;;;;;;5018052;28;20064;-67
2021/12/28 08:01:27;;;;;;;15.48;3.00;;;;;;;;;;5011304;28;20064;-67
2021/12/28 08:03:53;;;;;;;13.02;2.47;;;;;;;;;;5018976;28;20446;-67
2021/12/28 08:06:20;;;;;;;10.52;3.05;;;;;;;;;;5019242;28;20111;-67
2021/12/28 08:08:46;;;;;;;8.18;2.90;;;;;;;;;;5011155;28;20050;-67
2021/12/28 08:11:13;;;;;;;13.60;3.03;;;;;;;;;;5013306;28;20045;-67
2021/12/28 08:13:39;;;;;;;10.68;2.50;;;;;;;;;;5009222;28;20824;-67
2021/12/28 08:16:05;;;;;;;14.38;2.92;;;;;;;;;;5020310;28;20057;-68
2021/12/28 08:18:32;;;;;;;10.85;2.40;;;;;;;;;;5011723;28;20081;-68
2021/12/28 08:20:58;;;;;;;8.15;2.50;;;;;;;;;;5007431;28;20129;-68
2021/12/28 08:23:25;;;;;;;11.63;2.75;;;;;;;;;;5014663;28;20052;-68
2021/12/28 08:25:51;;;;;;;12.52;2.55;;;;;;;;;;5008101;28;20501;-68
2021/12/28 08:28:17;;;;;;;10.32;2.53;;;;;;;;;;5022667;28;20060;-68
2021/12/28 08:30:44;;;;;;;9.63;2.92;;;;;;;;;;5014346;28;20057;-68
2021/12/28 08:33:10;;;;;;;8.07;2.25;;;;;;;;;;5022806;28;20057;-68
2021/12/28 08:35:39;;;;;;;10.73;2.65;;;;;;;;;;5017082;28;20053;-68
2021/12/28 08:38:10;;;;;;;11.60;2.80;;;;;;;;;;5017557;28;20060;-68
2021/12/28 08:40:37;;;;;;;10.90;2.65;;;;;;;;;;5013829;28;20046;-68
2021/12/28 08:43:03;;;;;;;11.57;2.97;;;;;;;;;;5015095;28;20061;-68
2021/12/28 08:45:29;;;;;;;8.27;2.67;;;;;;;;;;5023576;28;20101;-68
2021/12/28 08:47:56;;;;;;;10.60;2.85;;;;;;;;;;5013791;28;20096;-68
2021/12/28 08:50:23;;;;;;;6.97;2.38;;;;;;;;;;5017688;28;20331;-68
2021/12/28 08:52:50;;;;;;;9.43;3.00;;;;;;;;;;4995449;28;20160;-68
2021/12/28 08:55:18;;;;;;;8.37;2.50;;;;;;;;;;5031556;28;20051;-68
2021/12/28 08:57:45;;;;;;;13.23;3.90;;;;;;;;;;5029632;28;20305;-67
2021/12/28 09:00:14;;;;;;;8.07;2.55;;;;;;;;;;4989322;28;20057;-67
2021/12/28 09:02:40;;;;;;;10.00;2.28;;;;;;;;;;5008271;28;20054;-66
2021/12/28 09:05:07;;;;;;;13.05;2.70;;;;;;;;;;4994582;28;20773;-67
2021/12/28 09:07:33;;;;;;;7.35;2.45;;;;;;;;;;5018468;28;20478;-66
2021/12/28 09:10:00;;;;;;;8.75;2.35;;;;;;;;;;5014291;28;20053;-67
2021/12/28 09:12:26;;;;;;;11.70;2.45;;;;;;;;;;5022674;28;20041;-66
2021/12/28 09:14:52;;;;;;;6.80;2.05;;;;;;;;;;5022663;28;20049;-67
2021/12/28 09:17:19;;;;;;;8.65;2.60;;;;;;;;;;5022042;28;20049;-67
2021/12/28 09:19:45;;;;;;;6.47;1.90;;;;;;;;;;5014649;28;20049;-67
2021/12/28 09:22:11;;;;;;;10.48;3.25;;;;;;;;;;5001975;28;20050;-66
2021/12/28 09:24:38;;;;;;;6.88;2.40;;;;;;;;;;5021429;28;20072;-66
2021/12/28 09:27:11;;;;;;;9.52;2.38;;;;;;;;;;4997765;28;20049;-66
2021/12/28 09:29:42;;;;;;;9.07;2.40;;;;;;;;;;5018172;28;20064;-67
2021/12/28 09:32:15;;;;;;;5.28;2.05;;;;;;;;;;5018245;28;20438;-67
2021/12/28 09:34:43;;;;;;;7.10;2.17;;;;;;;;;;5010917;28;20045;-66
2021/12/28 09:37:09;;;;;;;6.00;2.10;;;;;;;;;;5022566;28;20052;-67
2021/12/28 09:39:35;;;;;;;4.70;2.30;;;;;;;;;;5011782;28;20530;-67
2021/12/28 09:42:03;;;;;;;6.35;2.38;;;;;;;;;;5021322;28;20054;-67
2021/12/28 09:44:30;;;;;;;4.63;2.05;;;;;;;;;;5014380;28;20103;-67
2021/12/28 09:46:57;;;;;;;4.83;2.00;;;;;;;;;;4998253;28;20494;-67
2021/12/28 09:49:25;;;;;;;4.30;2.35;;;;;;;;;;5018052;28;20041;-67
2021/12/28 09:51:52;;;;;;;7.17;2.50;;;;;;;;;;5013046;28;20131;-68
2021/12/28 09:54:18;;;;;;;6.50;2.50;;;;;;;;;;5019891;28;20317;-67
2021/12/28 09:56:45;;;;;;;6.63;2.63;;;;;;;;;;5010711;28;20056;-67
2021/12/28 09:59:11;;;;;;;6.20;2.85;;;;;;;;;;5019148;28;20060;-67
2021/12/28 10:01:38;;;;;;;4.38;2.25;;;;;;;;;;5007027;28;20131;-68
2021/12/28 10:04:04;;;;;;;4.25;2.20;;;;;;;;;;5021162;28;20440;-67
2021/12/28 10:06:31;;;;;;;4.60;2.00;;;;;;;;;;5021810;28;20144;-67
2021/12/28 10:09:09;;;;;;;3.47;1.92;;;;;;;;;;5012472;28;20049;-67
2021/12/28 10:11:37;;;;;;;5.30;2.30;;;;;;;;;;5013775;28;20053;-69
2021/12/28 10:14:10;;;;;;;4.07;2.08;;;;;;;;;;5008940;28;20045;-67
2021/12/28 10:16:44;;;;;;;4.53;2.17;;;;;;;;;;4982476;28;20058;-67
2021/12/28 10:19:28;;;;;;;4.90;2.60;;;;;;;;;;4997489;28;20411;-67
2021/12/28 10:21:55;;;;;;;4.57;2.35;;;;;;;;;;5018317;28;20050;-67
2021/12/28 10:24:32;;;;;;;4.07;2.47;;;;;;;;;;5014011;28;20681;-67
2021/12/28 10:27:10;;;;;;;4.15;2.50;;;;;;;;;;5015257;28;20318;-67
2021/12/28 10:29:36;;;;;;;3.15;2.25;;;;;;;;;;5002224;28;20053;-67
2021/12/28 10:32:25;;;;;;;4.65;2.60;;;;;;;;;;5006514;28;20050;-67
2021/12/28 10:34:51;;;;;;;2.90;2.15;;;;;;;;;;5001469;28;20076;-67
2021/12/28 10:37:20;;;;;;;5.70;2.60;;;;;;;;;;4995316;28;20509;-67
2021/12/28 10:39:46;;;;;;;;;;;;;;;;;;5015749;28;20257;-67
2021/12/28 10:42:31;;;;;;;3.78;2.70;;;;;;;;;;5009857;28;19925;-67
2021/12/28 10:44:59;;;;;;;3.47;2.40;;;;;;;;;;5020774;28;20060;-67
2021/12/28 10:47:29;;;;;;;6.53;2.90;;;;;;;;;;5019834;28;20391;-67
2021/12/28 10:49:57;;;;;;;3.72;2.33;;;;;;;;;;5011846;28;20057;-67
2021/12/28 10:52:26;;;;;;;3.88;2.60;;;;;;;;;;5020614;28;20328;-67
2021/12/28 10:55:13;;;;;;;4.07;2.22;;;;;;;;;;4999052;28;20088;-67
2021/12/28 10:57:40;;;;;;;3.90;2.50;;;;;;;;;;4998702;28;20060;-68
2021/12/28 11:00:26;;;;;;;3.78;2.28;;;;;;;;;;5012781;28;20045;-70
2021/12/28 11:03:12;;;;;;;3.75;2.42;;;;;;;;;;5021486;28;20566;-68
2021/12/28 11:05:39;;;;;;;3.15;2.58;;;;;;;;;;5014588;28;20577;-68
2021/12/28 11:08:09;;;;;;;3.13;2.05;;;;;;;;;;5016079;28;20125;-68
2021/12/28 11:10:39;;;;;;;3.17;2.42;;;;;;;;;;4997210;28;20053;-67
2021/12/28 11:13:06;;;;;;;4.00;2.38;;;;;;;;;;5006354;28;20366;-68
2021/12/28 11:15:37;;;;;;;4.20;2.80;;;;;;;;;;4991198;28;20744;-68
2021/12/28 11:18:24;;;;;;;3.83;2.95;;;;;;;;;;5008562;28;20083;-68
2021/12/28 11:20:51;;;;;;;4.60;2.63;;;;;;;;;;5010403;28;20053;-68
2021/12/28 11:23:19;;;;;;;3.60;2.42;;;;;;;;;;4992689;28;20060;-68
2021/12/28 11:25:46;;;;;;;3.35;2.47;;;;;;;;;;5019552;28;20114;-68
2021/12/28 11:28:12;;;;;;;3.90;2.20;;;;;;;;;;5012971;28;20473;-67
2021/12/28 11:30:40;;;;;;;2.97;2.13;;;;;;;;;;5010150;28;20522;-68
2021/12/28 11:33:07;;;;;;;4.05;2.65;;;;;;;;;;5020662;28;20053;-68
2021/12/28 11:35:34;;;;;;;4.03;2.55;;;;;;;;;;4996527;28;20414;-68
2021/12/28 11:38:00;;;;;;;2.50;2.30;;;;;;;;;;5006729;28;20056;-68
2021/12/28 11:40:28;;;;;;;2.95;2.15;;;;;;;;;;5005329;28;20045;-68
2021/12/28 11:42:54;;;;;;;3.50;2.75;;;;;;;;;;5015501;28;20282;-68
2021/12/28 11:45:21;;;;;;;5.40;2.60;;;;;;;;;;5014176;28;20045;-67
2021/12/28 11:47:47;;;;;;;5.85;2.80;;;;;;;;;;5007921;28;20499;-66
2021/12/28 11:50:14;;;;;;;3.22;2.50;;;;;;;;;;5013195;28;20628;-66
2021/12/28 11:52:40;;;;;;;4.45;2.80;;;;;;;;;;5005856;28;20057;-67
2021/12/28 11:55:08;;;;;;;5.55;2.83;;;;;;;;;;5015412;28;20103;-67
2021/12/28 11:57:35;;;;;;;4.32;2.92;;;;;;;;;;5000102;28;20057;-68
2021/12/28 12:00:06;;;;;;;4.88;3.15;;;;;;;;;;5019655;28;20624;-68
2021/12/28 12:02:45;;;;;;;7.70;2.85;;;;;;;;;;5011521;28;20046;-68
2021/12/28 12:05:12;;;;;;;4.55;3.20;;;;;;;;;;5009643;28;20037;-68
2021/12/28 12:07:39;;;;;;;4.05;3.03;;;;;;;;;;5016350;28;20491;-68
2021/12/28 12:10:07;;;;;;;6.70;3.08;;;;;;;;;;5007357;28;20052;-68
2021/12/28 12:12:42;;;;;;;4.50;3.15;;;;;;;;;;5008465;28;20058;-69
2021/12/28 12:15:15;;;;;;;5.53;2.90;;;;;;;;;;5012266;28;20107;-68
2021/12/28 12:17:45;;;;;;;4.67;3.00;;;;;;;;;;5018544;28;20049;-67
2021/12/28 12:20:23;;;;;;;4.18;2.67;;;;;;;;;;5004383;28;20683;-67
2021/12/28 12:22:55;;;;;;;5.38;2.30;;;;;;;;;;5022841;28;20363;-67
2021/12/28 12:25:31;;;;;;;2.50;1.60;;;;;;;;;;5021368;28;20083;-68
2021/12/28 12:27:59;;;;;;;2.00;1.52;;;;;;;;;;5013024;28;20055;-68
2021/12/28 12:30:27;;;;;;;3.08;1.38;;;;;;;;;;5017151;28;20060;-68
2021/12/28 12:33:04;;;;;;;3.03;1.38;;;;;;;;;;5006171;28;20669;-68
2021/12/28 12:35:46;;;;;;;2.25;1.38;;;;;;;;;;5023087;28;20057;-68
2021/12/28 12:38:13;;;;;;;2.70;1.30;;;;;;;;;;5011453;28;20056;-68
2021/12/28 12:40:51;;;;;;;8.88;1.73;;;;;;;;;;5020189;28;20052;-68
2021/12/28 12:43:18;;;;;;;6.32;1.40;;;;;;;;;;5013645;28;20486;-70
2021/12/28 12:45:50;;;;;;;2.70;1.23;;;;;;;;;;5016709;28;20049;-70
2021/12/28 12:48:40;;;;;;;6.30;1.48;;;;;;;;;;5020442;28;20383;-69
2021/12/28 12:51:22;;;;;;;4.93;1.45;;;;;;;;;;5022603;28;20169;-69
2021/12/28 12:53:50;;;;;;;5.03;1.90;;;;;;;;;;5011078;28;20045;-68
2021/12/28 12:56:17;;;;;;;4.57;1.52;;;;;;;;;;5008756;28;20041;-67
2021/12/28 12:58:46;;;;;;;8.57;1.57;;;;;;;;;;5017553;28;20084;-67
2021/12/28 13:01:24;;;;;;;8.07;2.13;;;;;;;;;;5001878;28;20053;-68
2021/12/28 13:03:50;;;;;;;;;;;;;;;;;;5022315;28;20050;-69
2021/12/28 13:06:36;;;;;;;10.15;1.88;;;;;;;;;;5000143;28;20019;-69
2021/12/28 13:09:04;;;;;;;8.32;2.03;;;;;;;;;;5015541;28;20156;-68
2021/12/28 13:11:31;;;;;;;14.80;2.40;;;;;;;;;;5020876;28;20061;-68
2021/12/28 13:13:57;;;;;;;14.75;2.53;;;;;;;;;;5007985;28;20542;-69
2021/12/28 13:16:24;;;;;;;12.98;2.75;;;;;;;;;;5020528;28;20053;-68
2021/12/28 13:18:50;;;;;;;14.82;3.00;;;;;;;;;;5012281;28;20053;-68
2021/12/28 13:21:19;;;;;;;14.52;2.20;;;;;;;;;;5014068;28;20785;-68
2021/12/28 13:24:08;;;;;;;15.63;3.22;;;;;;;;;;5010292;28;20053;-68
2021/12/28 13:26:45;;;;;;;15.38;3.13;;;;;;;;;;5002304;28;20253;-68
2021/12/28 13:29:11;;;;;;;14.13;2.83;;;;;;;;;;5007929;28;20120;-68
2021/12/28 13:31:37;;;;;;;12.23;2.47;;;;;;;;;;5021219;28;20485;-68
2021/12/28 13:34:04;;;;;;;13.75;2.47;;;;;;;;;;5020644;28;20460;-68
2021/12/28 13:36:30;;;;;;;12.93;2.35;;;;;;;;;;5011835;28;20061;-68
2021/12/28 13:39:06;;;;;;;15.65;2.55;;;;;;;;;;5018376;28;20057;-68
2021/12/28 13:41:32;;;;;;;16.88;3.47;;;;;;;;;;5006685;28;20708;-68
2021/12/28 13:44:02;;;;;;;15.85;2.90;;;;;;;;;;5016834;28;20989;-69
2021/12/28 13:46:29;;;;;;;19.40;3.20;;;;;;;;;;5008313;28;20065;-68
2021/12/28 13:48:57;;;;;;;21.77;3.33;;;;;;;;;;5020063;28;20439;-69
2021/12/28 13:51:24;;;;;;;23.27;4.35;;;;;;;;;;5021092;28;20041;-68
2021/12/28 13:53:51;;;;;;;15.75;3.15;;;;;;;;;;5011170;28;20053;-68
2021/12/28 13:56:22;;;;;;;28.98;5.00;;;;;;;;;;5011448;28;20061;-68
2021/12/28 13:58:50;;;;;;;20.00;3.17;;;;;;;;;;5007504;28;20060;-68
2021/12/28 14:01:18;;;;;;;19.75;2.80;;;;;;;;;;5016839;28;20046;-68
2021/12/28 14:04:04;;;;;;;25.88;4.15;;;;;;;;;;4995108;28;20659;-68
2021/12/28 14:06:32;;;;;;;21.17;3.83;;;;;;;;;;5013645;28;20056;-68
2021/12/28 14:09:02;;;;;;;16.40;3.55;;;;;;;;;;5000501;28;20364;-68
2021/12/28 14:11:30;;;;;;;29.65;4.45;;;;;;;;;;5012735;28;20244;-68
2021/12/28 14:13:56;;;;;;;25.95;3.28;;;;;;;;;;5016937;28;20084;-68
2021/12/28 14:16:22;;;;;;;27.25;3.45;;;;;;;;;;5012746;28;20064;-68
2021/12/28 14:18:50;;;;;;;20.30;3.65;;;;;;;;;;5018384;28;20050;-68
2021/12/28 14:21:16;;;;;;;22.02;3.13;;;;;;;;;;5005166;28;20647;-67
2021/12/28 14:23:44;;;;;;;21.95;4.63;;;;;;;;;;5004982;28;20045;-67
2021/12/28 14:26:13;;;;;;;23.58;3.25;;;;;;;;;;5009896;28;20053;-67
2021/12/28 14:28:59;;;;;;;;;;;;;;;;;;5009179;28;20608;-68
2021/12/28 14:31:27;;;;;;;13.18;1.83;;;;;;;;;;5020635;28;19932;-68
2021/12/28 14:33:58;;;;;;;8.90;2.85;;;;;;;;;;5011145;28;20060;-67
2021/12/28 14:36:32;;;;;;;14.82;2.25;;;;;;;;;;5015510;28;20459;-68
2021/12/28 14:39:10;;;;;;;14.07;2.10;;;;;;;;;;4998719;28;20049;-68
2021/12/28 14:41:37;;;;;;;15.88;2.55;;;;;;;;;;5014538;28;20128;-68
2021/12/28 14:44:14;;;;;;;19.60;2.88;;;;;;;;;;4986673;28;20045;-68